createdAt,value
2022-11-22T00:02:10.692Z,7.20
2022-11-22T00:04:37.198Z,6.75
2022-11-22T00:07:03.627Z,7.57
2022-11-22T00:09:30.264Z,6.30
2022-11-22T00:11:56.958Z,6.95
2022-11-22T00:14:23.496Z,7.82
2022-11-22T00:16:49.858Z,7.75
2022-11-22T00:19:16.145Z,7.88
2022-11-22T00:21:42.489Z,8.43
2022-11-22T00:24:08.998Z,7.45
2022-11-22T00:26:35.370Z,7.20
2022-11-22T00:29:01.652Z,7.55
2022-11-22T00:31:27.960Z,7.50
2022-11-22T00:33:54.309Z,6.78
2022-11-22T00:36:20.671Z,7.03
2022-11-22T00:38:46.953Z,6.70
2022-11-22T00:41:13.231Z,7.15
2022-11-22T00:43:39.537Z,7.45
2022-11-22T00:46:05.804Z,6.82
2022-11-22T00:48:32.371Z,7.45
2022-11-22T00:50:58.844Z,6.95
2022-11-22T00:53:25.505Z,6.68
2022-11-22T00:55:51.932Z,7.07
2022-11-22T00:58:18.362Z,7.07
2022-11-22T01:00:44.757Z,7.20
2022-11-22T01:03:11.847Z,6.93
2022-11-22T01:05:38.369Z,6.90
2022-11-22T01:08:04.712Z,7.82
2022-11-22T01:10:31.005Z,6.57
2022-11-22T01:12:57.656Z,6.93
2022-11-22T01:15:24.207Z,7.07
2022-11-22T01:17:50.617Z,7.15
2022-11-22T01:20:16.995Z,6.93
2022-11-22T01:22:43.387Z,6.30
2022-11-22T01:25:10.030Z,6.88
2022-11-22T01:27:36.384Z,6.53
2022-11-22T01:30:03.064Z,6.50
2022-11-22T01:32:29.379Z,7.05
2022-11-22T01:34:55.692Z,6.80
2022-11-22T01:37:22.083Z,6.40
2022-11-22T01:39:48.387Z,6.30
2022-11-22T01:42:14.713Z,6.75
2022-11-22T01:44:42.651Z,6.53
2022-11-22T01:47:13.830Z,6.55
2022-11-22T01:49:42.101Z,6.88
2022-11-22T01:52:17.747Z,6.72
2022-11-22T01:54:45.832Z,7.10
2022-11-22T01:57:15.353Z,6.68
2022-11-22T01:59:44.994Z,6.22
2022-11-22T02:02:12.281Z,7.43
2022-11-22T02:04:39.658Z,6.35
2022-11-22T02:07:09.290Z,6.50
2022-11-22T02:09:37.162Z,6.55
2022-11-22T02:12:04.952Z,6.32
2022-11-22T02:14:31.367Z,6.38
2022-11-22T02:16:57.628Z,6.55
2022-11-22T02:19:33.804Z,6.30
2022-11-22T02:22:03.354Z,6.65
2022-11-22T02:24:37.597Z,6.75
2022-11-22T02:27:04.398Z,6.30
2022-11-22T02:29:31.840Z,6.57
2022-11-22T02:31:58.362Z,6.22
2022-11-22T02:34:24.771Z,5.95
2022-11-22T02:36:52.937Z,5.70
2022-11-22T02:39:26.073Z,4.65
2022-11-22T02:41:53.446Z,4.78
2022-11-22T02:44:20.364Z,4.97
2022-11-22T02:46:48.109Z,5.28
2022-11-22T02:49:16.288Z,4.88
2022-11-22T02:51:42.667Z,4.50
2022-11-22T02:54:09.015Z,4.50
2022-11-22T02:56:35.375Z,4.47
2022-11-22T02:59:01.828Z,3.85
2022-11-22T03:01:28.961Z,3.78
2022-11-22T03:03:55.282Z,3.78
2022-11-22T03:06:21.540Z,4.05
2022-11-22T03:08:53.165Z,3.33
2022-11-22T03:11:22.355Z,4.43
2022-11-22T03:13:48.686Z,3.60
2022-11-22T03:16:14.996Z,3.45
2022-11-22T03:18:41.251Z,3.65
2022-11-22T03:21:08.648Z,4.03
2022-11-22T03:23:35.333Z,3.33
2022-11-22T03:26:07.428Z,3.53
2022-11-22T03:28:33.897Z,3.20
2022-11-22T03:31:00.321Z,3.13
2022-11-22T03:33:26.656Z,3.45
2022-11-22T03:35:56.924Z,3.80
2022-11-22T03:38:23.464Z,2.70
2022-11-22T03:40:49.778Z,3.03
2022-11-22T03:43:16.077Z,2.75
2022-11-22T03:45:46.373Z,2.50
2022-11-22T03:48:13.105Z,2.60
2022-11-22T03:50:39.801Z,2.28
2022-11-22T03:53:06.246Z,2.42
2022-11-22T03:55:32.632Z,2.70
2022-11-22T03:57:59.061Z,2.40
2022-11-22T04:00:25.492Z,2.60
2022-11-22T04:02:51.839Z,2.55
2022-11-22T04:05:18.085Z,2.47
2022-11-22T04:07:44.391Z,2.13
2022-11-22T04:10:10.691Z,2.30
2022-11-22T04:12:37.048Z,2.20
2022-11-22T04:15:06.825Z,2.78
2022-11-22T04:17:40.417Z,2.70
2022-11-22T04:20:26.398Z,3.08
2022-11-22T04:22:59.741Z,2.50
2022-11-22T04:25:27.282Z,3.38
2022-11-22T04:27:53.687Z,2.85
2022-11-22T04:30:20.961Z,1.83
2022-11-22T04:32:47.417Z,2.15
2022-11-22T04:35:14.992Z,2.58
2022-11-22T04:37:41.959Z,2.00
2022-11-22T04:40:08.754Z,2.50
2022-11-22T04:42:53.789Z,2.55
2022-11-22T04:45:20.124Z,2.40
2022-11-22T04:48:01.626Z,2.55
2022-11-22T04:50:47.809Z,2.08
2022-11-22T04:53:14.412Z,1.77
2022-11-22T04:55:41.117Z,2.10
2022-11-22T04:58:07.749Z,2.33
2022-11-22T05:00:34.266Z,2.58
2022-11-22T05:03:00.929Z,1.98
2022-11-22T05:05:27.572Z,2.33
2022-11-22T05:07:53.853Z,2.42
2022-11-22T05:10:26.128Z,2.00
2022-11-22T05:12:53.036Z,1.95
2022-11-22T05:15:19.331Z,2.38
2022-11-22T05:17:45.624Z,2.25
2022-11-22T05:20:11.994Z,2.60
2022-11-22T05:22:57.120Z,2.30
2022-11-22T05:25:25.707Z,1.70
2022-11-22T05:27:55.228Z,2.13
2022-11-22T05:30:21.612Z,2.28
2022-11-22T05:32:47.924Z,2.58
2022-11-22T05:35:14.242Z,2.42
2022-11-22T05:37:40.548Z,1.95
2022-11-22T05:40:07.262Z,2.53
2022-11-22T05:42:34.367Z,1.70
2022-11-22T05:45:00.736Z,2.22
2022-11-22T05:47:27.069Z,2.00
2022-11-22T05:49:53.377Z,2.08
2022-11-22T05:52:19.679Z,2.10
2022-11-22T05:54:45.999Z,2.15
2022-11-22T05:57:12.439Z,1.92
2022-11-22T05:59:43.760Z,2.53
2022-11-22T06:02:10.613Z,1.88
2022-11-22T06:04:37.086Z,1.95
2022-11-22T06:07:09.600Z,2.20
2022-11-22T06:09:36.519Z,1.95
2022-11-22T06:12:02.891Z,1.77
2022-11-22T06:14:29.210Z,3.25
2022-11-22T06:16:55.480Z,1.98
2022-11-22T06:19:21.815Z,2.03
2022-11-22T06:21:48.084Z,1.60
2022-11-22T06:24:14.397Z,2.33
2022-11-22T06:26:40.732Z,2.67
2022-11-22T06:29:07.035Z,2.72
2022-11-22T06:31:33.549Z,2.63
2022-11-22T06:34:00.472Z,1.90
2022-11-22T06:36:28.519Z,1.90
2022-11-22T06:38:55.137Z,1.80
2022-11-22T06:41:22.538Z,2.17
2022-11-22T06:43:49.920Z,2.38
2022-11-22T06:46:17.172Z,1.95
2022-11-22T06:48:43.492Z,1.73
2022-11-22T06:51:11.348Z,1.73
2022-11-22T06:53:51.740Z,2.40
2022-11-22T06:56:22.643Z,2.55
2022-11-22T07:01:16.637Z,2.30
2022-11-22T07:03:45.391Z,2.30
2022-11-22T07:06:12.683Z,2.40
2022-11-22T07:08:39.307Z,2.83
2022-11-22T07:11:07.529Z,2.58
2022-11-22T07:13:34.520Z,2.75
2022-11-22T07:16:01.870Z,3.65
2022-11-22T07:18:28.792Z,2.38
2022-11-22T07:21:09.542Z,2.78
2022-11-22T07:23:39.593Z,3.15
2022-11-22T07:26:05.987Z,3.25
2022-11-22T07:28:32.297Z,2.28
2022-11-22T07:30:59.351Z,4.00
2022-11-22T07:33:25.652Z,2.40
2022-11-22T07:35:51.921Z,3.53
2022-11-22T07:38:18.455Z,3.60
2022-11-22T07:40:44.720Z,3.50
2022-11-22T07:43:11.082Z,2.95
2022-11-22T07:45:37.377Z,3.10
2022-11-22T07:48:03.769Z,2.78
2022-11-22T07:50:30.170Z,4.00
2022-11-22T07:52:59.941Z,3.10
2022-11-22T07:55:26.999Z,2.83
2022-11-22T07:57:53.638Z,2.67
2022-11-22T08:00:20.587Z,3.15
2022-11-22T08:02:46.880Z,3.78
2022-11-22T08:05:13.206Z,3.25
2022-11-22T08:07:39.688Z,2.90
2022-11-22T08:10:06.360Z,3.55
2022-11-22T08:12:32.604Z,3.85
2022-11-22T08:14:58.909Z,3.03
2022-11-22T08:17:25.360Z,3.10
2022-11-22T08:19:53.488Z,3.45
2022-11-22T08:22:20.015Z,4.03
2022-11-22T08:24:46.397Z,3.53
2022-11-22T08:27:12.758Z,3.17
2022-11-22T08:29:39.082Z,2.80
2022-11-22T08:32:05.493Z,2.97
2022-11-22T08:34:31.754Z,2.20
2022-11-22T08:36:58.048Z,3.00
2022-11-22T08:39:24.403Z,3.72
2022-11-22T08:41:50.790Z,2.65
2022-11-22T08:44:17.066Z,2.70
2022-11-22T08:46:43.377Z,2.60
2022-11-22T08:49:12.832Z,3.15
2022-11-22T08:51:46.901Z,2.90
2022-11-22T08:54:14.009Z,2.42
2022-11-22T08:56:40.950Z,2.60
2022-11-22T08:59:07.776Z,2.75
2022-11-22T09:01:34.211Z,2.58
2022-11-22T09:04:00.671Z,3.00
2022-11-22T09:11:59.690Z,2.65
2022-11-22T09:14:26.025Z,3.17
2022-11-22T09:16:52.417Z,2.00
2022-11-22T09:19:18.824Z,2.53
2022-11-22T09:21:45.272Z,2.33
2022-11-22T09:24:12.234Z,2.40
2022-11-22T09:26:38.927Z,2.00
2022-11-22T09:29:05.266Z,2.60
2022-11-22T09:31:31.810Z,2.58
2022-11-22T09:33:58.076Z,2.92
2022-11-22T09:36:28.051Z,2.80
2022-11-22T09:38:56.194Z,2.40
2022-11-22T09:41:22.539Z,2.88
2022-11-22T09:44:07.843Z,2.58
2022-11-22T09:46:40.408Z,2.58
2022-11-22T09:49:25.750Z,2.53
2022-11-22T09:52:02.917Z,2.80
2022-11-22T09:54:34.665Z,3.05
2022-11-22T09:57:03.429Z,2.60
2022-11-22T09:59:34.402Z,2.78
2022-11-22T10:04:40.187Z,2.85
2022-11-22T10:07:38.922Z,3.28
2022-11-22T10:10:22.251Z,2.70
2022-11-22T10:12:58.694Z,2.67
2022-11-22T10:15:28.102Z,2.85
2022-11-22T10:17:54.410Z,2.72
2022-11-22T10:20:42.071Z,2.50
2022-11-22T10:23:16.525Z,2.72
2022-11-22T10:25:45.636Z,2.40
2022-11-22T10:28:19.388Z,2.60
2022-11-22T10:30:51.915Z,2.45
2022-11-22T10:33:24.654Z,2.58
2022-11-22T10:36:00.029Z,2.80
2022-11-22T10:38:50.545Z,2.67
2022-11-22T10:41:22.866Z,2.88
2022-11-22T10:43:58.357Z,2.58
2022-11-22T10:46:30.498Z,2.45
2022-11-22T10:49:20.100Z,2.78
2022-11-22T10:51:50.891Z,2.30
2022-11-22T10:54:36.225Z,2.97
2022-11-22T10:57:05.812Z,2.45
2022-11-22T10:59:55.570Z,2.00
2022-11-22T11:02:22.023Z,2.03
2022-11-22T11:04:58.158Z,2.60
2022-11-22T11:07:25.510Z,2.38
2022-11-22T11:12:43.499Z,2.03
2022-11-22T11:15:16.799Z,2.05
2022-11-22T11:17:44.504Z,2.20
2022-11-22T11:20:23.463Z,2.10
2022-11-22T11:25:42.357Z,1.90
2022-11-22T11:28:08.827Z,1.95
2022-11-22T11:30:40.062Z,2.20
2022-11-22T11:33:16.472Z,2.00
2022-11-22T11:35:44.266Z,1.67
2022-11-22T11:38:26.133Z,1.95
2022-11-22T11:40:52.386Z,1.77
2022-11-22T11:43:19.898Z,1.55
2022-11-22T11:45:46.748Z,1.48
2022-11-22T11:48:30.331Z,2.25
2022-11-22T11:51:20.026Z,1.60
2022-11-22T11:53:51.800Z,1.58
2022-11-22T11:56:33.612Z,1.52
2022-11-22T11:59:02.770Z,1.60
2022-11-22T12:01:38.357Z,1.50
2022-11-22T12:04:06.512Z,1.58
2022-11-22T12:06:33.136Z,1.90
2022-11-22T12:09:00.093Z,1.73
2022-11-22T12:11:30.856Z,1.58
2022-11-22T12:14:18.969Z,1.60
2022-11-22T12:16:47.902Z,1.77
2022-11-22T12:19:32.981Z,1.70
2022-11-22T12:22:42.739Z,1.75
2022-11-22T12:28:19.259Z,1.60
2022-11-22T12:30:48.749Z,1.55
2022-11-22T12:33:20.645Z,1.75
2022-11-22T12:35:48.481Z,1.50
2022-11-22T12:38:19.794Z,1.38
2022-11-22T12:40:48.156Z,1.45
2022-11-22T12:43:18.189Z,1.65
2022-11-22T12:45:48.670Z,1.58
2022-11-22T12:48:18.283Z,1.52
2022-11-22T12:48:32.808Z,1.48
2022-11-22T12:50:47.365Z,1.40
2022-11-22T12:53:15.133Z,1.73
2022-11-22T12:55:48.043Z,1.23
2022-11-22T12:58:46.883Z,1.63
2022-11-22T13:01:17.675Z,1.45
2022-11-22T13:03:43.941Z,1.38
2022-11-22T13:06:10.820Z,1.42
2022-11-22T13:08:37.085Z,1.30
2022-11-22T13:11:14.020Z,1.40
2022-11-22T13:13:42.943Z,1.30
2022-11-22T13:16:10.129Z,1.40
2022-11-22T13:18:38.771Z,1.23
2022-11-22T13:21:23.739Z,2.17
2022-11-22T13:23:53.109Z,1.40
2022-11-22T13:26:22.628Z,1.23
2022-11-22T13:28:50.307Z,1.20
2022-11-22T13:31:18.204Z,1.27
2022-11-22T13:33:58.122Z,1.50
2022-11-22T13:36:27.458Z,1.00
2022-11-22T13:38:58.152Z,1.05
2022-11-22T13:41:27.168Z,1.10
2022-11-22T13:43:57.805Z,1.10
2022-11-22T13:47:04.504Z,1.23
2022-11-22T13:49:36.824Z,1.15
2022-11-22T13:52:25.422Z,1.30
2022-11-22T13:54:56.845Z,1.00
2022-11-22T13:57:29.347Z,1.00
2022-11-22T14:00:19.714Z,1.00
2022-11-22T14:03:05.991Z,1.00
2022-11-22T14:05:36.551Z,1.02
2022-11-22T14:08:06.315Z,1.10
2022-11-22T14:10:34.818Z,1.10
2022-11-22T14:13:19.987Z,1.40
2022-11-22T14:15:46.548Z,0.80
2022-11-22T14:18:15.885Z,1.02
2022-11-22T14:20:47.973Z,1.02
2022-11-22T14:23:17.414Z,0.93
2022-11-22T14:25:54.438Z,2.35
2022-11-22T14:28:39.604Z,1.10
2022-11-22T14:31:14.428Z,0.90
2022-11-22T14:34:00.707Z,1.20
2022-11-22T14:36:27.054Z,1.10
2022-11-22T14:38:53.329Z,1.20
2022-11-22T14:41:28.700Z,0.98
2022-11-22T14:44:00.560Z,1.02
2022-11-22T14:46:51.741Z,0.90
2022-11-22T14:49:18.872Z,1.15
2022-11-22T14:51:45.838Z,0.90
2022-11-22T14:54:21.361Z,0.90
2022-11-22T14:56:48.419Z,0.80
2022-11-22T14:59:14.888Z,1.00
2022-11-22T15:02:00.697Z,7.57
2022-11-22T15:09:10.831Z,6.53
2022-11-22T15:09:20.996Z,9.63
2022-11-22T15:10:21.222Z,3.13
2022-11-22T15:12:47.679Z,4.22
2022-11-22T15:57:44.846Z,1.20
2022-11-22T16:00:30.398Z,1.60
2022-11-22T16:02:57.879Z,1.20
2022-11-22T16:06:08.912Z,1.42
2022-11-22T16:08:17.682Z,2.25
2022-11-22T16:10:48.364Z,3.63
2022-11-22T16:13:18.592Z,3.40
2022-11-22T16:15:45.409Z,4.40
2022-11-22T16:18:17.535Z,2.47
2022-11-22T16:20:59.113Z,2.40
2022-11-22T16:23:26.913Z,2.80
2022-11-22T16:25:54.768Z,2.10
2022-11-22T16:28:24.100Z,2.60
2022-11-22T16:30:50.439Z,2.20
2022-11-22T16:33:16.765Z,2.50
2022-11-22T16:35:43.073Z,1.85
2022-11-22T16:38:10.688Z,2.13
2022-11-22T16:40:40.985Z,2.30
2022-11-22T16:43:13.696Z,2.70
2022-11-22T16:45:39.957Z,2.88
2022-11-22T16:48:30.764Z,2.55
2022-11-22T16:50:59.535Z,2.60
2022-11-22T16:53:26.830Z,3.60
2022-11-22T16:55:53.115Z,2.60
2022-11-22T16:58:21.335Z,2.60
2022-11-22T17:00:48.276Z,3.10
2022-11-22T17:03:16.668Z,2.90
2022-11-22T17:05:43.326Z,3.65
2022-11-22T17:08:10.962Z,4.07
2022-11-22T17:10:39.335Z,6.75
2022-11-22T17:13:05.608Z,4.30
2022-11-22T17:15:32.060Z,4.78
2022-11-22T17:17:58.873Z,7.28
2022-11-22T17:20:25.219Z,6.35
2022-11-22T17:22:51.839Z,3.92
2022-11-22T17:25:26.145Z,4.30
2022-11-22T17:27:54.225Z,5.00
2022-11-22T17:30:20.755Z,4.97
2022-11-22T17:32:47.140Z,5.47
2022-11-22T17:35:13.497Z,4.97
2022-11-22T17:37:39.759Z,5.22
2022-11-22T17:40:06.481Z,4.93
2022-11-22T17:42:35.567Z,5.32
2022-11-22T17:45:06.327Z,5.90
2022-11-22T17:47:32.942Z,5.75
2022-11-22T17:49:59.786Z,6.78
2022-11-22T17:52:26.960Z,6.28
2022-11-22T17:54:53.215Z,6.43
2022-11-22T17:57:19.576Z,7.00
2022-11-22T17:59:45.943Z,7.07
2022-11-22T18:02:15.809Z,10.00
2022-11-22T18:04:44.393Z,7.80
2022-11-22T18:07:11.197Z,6.43
2022-11-22T18:09:37.622Z,6.35
2022-11-22T18:12:05.263Z,5.65
2022-11-22T18:14:31.624Z,5.85
2022-11-22T18:17:00.327Z,5.90
2022-11-22T18:19:26.633Z,5.85
2022-11-22T18:21:53.056Z,5.88
2022-11-22T18:24:19.413Z,5.80
2022-11-22T18:26:45.783Z,5.93
2022-11-22T18:31:59.404Z,5.80
2022-11-22T18:34:25.700Z,5.28
2022-11-22T18:37:07.514Z,5.47
2022-11-22T18:39:36.284Z,5.78
2022-11-22T18:42:04.409Z,6.65
2022-11-22T18:44:34.190Z,5.80
2022-11-22T18:47:01.125Z,6.38
2022-11-22T18:49:30.387Z,5.10
2022-11-22T18:51:58.359Z,5.45
2022-11-22T18:54:24.800Z,4.75
2022-11-22T18:56:51.471Z,5.82
2022-11-22T18:59:18.090Z,5.75
2022-11-22T19:01:44.359Z,7.53
2022-11-22T19:04:15.239Z,5.55
2022-11-22T19:06:42.137Z,5.15
2022-11-22T19:09:08.716Z,4.38
2022-11-22T19:11:35.311Z,5.30
2022-11-22T19:14:01.877Z,4.85
2022-11-22T19:16:30.003Z,4.28
2022-11-22T19:18:56.462Z,5.28
2022-11-22T19:21:23.388Z,4.70
2022-11-22T19:23:49.857Z,4.80
2022-11-22T19:26:19.384Z,5.03
2022-11-22T19:28:46.450Z,4.35
2022-11-22T19:31:13.981Z,4.18
2022-11-22T19:33:40.342Z,5.18
2022-11-22T19:36:08.110Z,5.00
2022-11-22T19:38:34.455Z,4.32
2022-11-22T19:41:00.831Z,6.22
2022-11-22T19:43:27.123Z,7.30
2022-11-22T19:45:53.575Z,9.88
2022-11-22T19:48:20.169Z,9.65
2022-11-22T19:50:46.499Z,10.38
2022-11-22T19:53:12.770Z,8.82
2022-11-22T19:55:45.099Z,12.20
2022-11-22T19:58:11.809Z,11.65
2022-11-22T20:00:38.125Z,12.05
2022-11-22T20:03:04.472Z,7.20
2022-11-22T20:05:35.099Z,9.45
2022-11-22T20:08:03.789Z,7.40
2022-11-22T20:10:30.440Z,7.65
2022-11-22T20:12:56.750Z,8.30
2022-11-22T20:15:23.056Z,10.10
2022-11-22T20:17:49.492Z,10.73
2022-11-22T20:20:15.898Z,9.25
2022-11-22T20:22:44.639Z,8.00
2022-11-22T20:25:10.960Z,8.85
2022-11-22T20:27:37.226Z,8.93
2022-11-22T20:30:03.747Z,7.75
2022-11-22T20:32:30.073Z,8.57
2022-11-22T20:34:58.709Z,9.45
2022-11-22T20:37:24.979Z,8.82
2022-11-22T20:39:51.313Z,7.60
2022-11-22T20:42:34.829Z,8.90
2022-11-22T20:45:10.862Z,8.15
2022-11-22T20:47:37.298Z,8.13
2022-11-22T20:50:03.813Z,8.32
2022-11-22T20:52:30.185Z,6.97
2022-11-22T20:55:01.747Z,7.82
2022-11-22T20:57:31.246Z,6.55
2022-11-22T20:59:57.652Z,6.30
2022-11-22T21:02:23.957Z,7.15
2022-11-22T21:04:50.454Z,7.10
2022-11-22T21:07:16.981Z,9.43
2022-11-22T21:09:43.351Z,7.00
2022-11-22T21:12:09.665Z,9.30
2022-11-22T21:14:35.957Z,10.27
2022-11-22T21:17:22.667Z,7.55
2022-11-22T21:19:48.555Z,10.82
2022-11-22T21:22:15.155Z,9.55
2022-11-22T21:24:41.481Z,6.40
2022-11-22T21:27:07.736Z,7.82
2022-11-22T21:29:34.196Z,8.18
2022-11-22T21:32:00.495Z,8.80
2022-11-22T21:34:26.832Z,7.85
2022-11-22T21:36:53.155Z,9.07
2022-11-22T21:39:19.507Z,7.90
2022-11-22T21:41:45.782Z,7.57
2022-11-22T21:44:12.140Z,8.23
2022-11-22T21:46:38.888Z,7.00
2022-11-22T21:49:05.243Z,6.40
2022-11-22T21:51:31.897Z,7.22
2022-11-22T21:53:58.845Z,9.75
2022-11-22T21:56:25.705Z,6.35
2022-11-22T21:58:52.306Z,7.45
2022-11-22T22:01:18.685Z,7.82
2022-11-22T22:03:44.998Z,7.43
2022-11-22T22:06:11.350Z,7.03
2022-11-22T22:08:37.883Z,7.35
2022-11-22T22:11:05.341Z,7.65
2022-11-22T22:13:32.270Z,8.10
2022-11-22T22:15:59.298Z,7.30
2022-11-22T22:18:33.109Z,8.60
2022-11-22T22:21:06.277Z,6.95
2022-11-22T22:23:36.410Z,7.40
2022-11-22T22:26:04.919Z,7.82
2022-11-22T22:28:34.262Z,8.80
2022-11-22T22:31:03.534Z,9.60
2022-11-22T22:33:30.334Z,8.20
2022-11-22T22:35:59.841Z,7.38
2022-11-22T22:38:26.642Z,7.90
2022-11-22T22:40:53.996Z,7.30
2022-11-22T22:43:20.909Z,8.05
2022-11-22T22:45:47.177Z,7.03
2022-11-22T22:48:13.484Z,7.93
2022-11-22T22:50:39.787Z,8.32
2022-11-22T22:53:06.277Z,8.27
2022-11-22T22:55:32.588Z,7.78
2022-11-22T22:58:02.426Z,7.25
2022-11-22T23:00:28.756Z,7.55
2022-11-22T23:02:55.384Z,7.07
2022-11-22T23:05:24.640Z,7.20
2022-11-22T23:07:51.060Z,7.65
2022-11-22T23:10:17.464Z,7.82
2022-11-22T23:12:43.736Z,7.60
2022-11-22T23:15:10.250Z,7.18
2022-11-22T23:17:36.602Z,7.78
2022-11-22T23:20:03.257Z,7.25
2022-11-22T23:22:29.559Z,8.23
2022-11-22T23:24:55.819Z,8.20
2022-11-22T23:27:22.116Z,7.90
2022-11-22T23:29:48.383Z,8.00
2022-11-22T23:32:14.678Z,8.25
2022-11-22T23:34:40.920Z,9.45
2022-11-22T23:37:07.258Z,8.75
2022-11-22T23:39:33.762Z,9.63
2022-11-22T23:42:00.173Z,9.07
2022-11-22T23:44:26.421Z,10.52
2022-11-22T23:46:52.765Z,10.60
2022-11-22T23:49:19.067Z,10.20
2022-11-22T23:51:46.225Z,10.13
2022-11-22T23:54:12.522Z,10.45
2022-11-22T23:56:39.061Z,11.02
2022-11-22T23:59:05.695Z,11.77
